Rachel Hailey — WDI3553 — position and weather

sailwx.info

Track history (hours):
 
Tides and Currents Weather Stations Pressure Air Temp Water Temp Dewpoint Dewpoint Depression Visibility Wind Speed Wind Dir Waves Ship Positions

Rachel Hailey

Owner: F/V Natalie Felicia, LLC, West Creek, NJ. More information available from US FCC via Universal Licensing System and Coast Guard Vessel Documentation Center.

Last reported at 2018-Jul-04 10:21 UTC. Time now 2018-Aug-14 07:04 UTC.
Position N 40°19' W 071°20'.
Warning: this ship's position is 40 days out of date.

Length 23 m.

Type: Fishing. MMSI: 367689520.

Date/timePositionNaut miles runAvg speedWind from/ knotsBaromVisibWave heightAir tempDewpointWater temp
2018-Jul-04 10:21N 40°19' W 071°20'4 7.6
2018-Jul-04 09:53N 40°19' W 071°25'3 7.7
2018-Jul-04 09:28N 40°19' W 071°29'32 8.1
2018-Jul-04 05:30N 40°15' W 072°11'4 8.5
2018-Jul-04 05:00N 40°14' W 072°16'5 8.2
2018-Jul-04 04:25N 40°14' W 072°22'44 7.9
2018-Jul-03 22:54N 40°09' W 073°19'4 8.1
2018-Jul-03 22:26N 40°09' W 073°24'4 8.3
2018-Jul-03 21:57N 40°09' W 073°30'4 8.0
2018-Jul-03 21:26N 40°08' W 073°35'4 8.3
2018-Jul-03 20:59N 40°07' W 073°40'4 8.4
2018-Jul-03 20:30N 40°07' W 073°45'6 8.4
2018-Jul-03 19:46N 40°06' W 073°53'  
Track history (hours):
 
Tides and Currents Weather Stations Pressure Air Temp Water Temp Dewpoint Dewpoint Depression Visibility Wind Speed Wind Dir Waves Ship Positions

Rachel Hailey

Owner: F/V Natalie Felicia, LLC, West Creek, NJ. More information available from US FCC via Universal Licensing System and Coast Guard Vessel Documentation Center.

Last reported at 2018-Jul-04 10:21 UTC. Time now 2018-Aug-14 07:04 UTC.
Position N 40°19' W 071°20'.
Warning: this ship's position is 40 days out of date.

Length 23 m.

Type: Fishing. MMSI: 367689520.

Date/timePositionNaut miles runAvg speedWind from/ knotsBaromVisibWave heightAir tempDewpointWater temp
2018-Jul-04 10:21N 40°19' W 071°20'4 7.6
2018-Jul-04 09:53N 40°19' W 071°25'3 7.7
2018-Jul-04 09:28N 40°19' W 071°29'32 8.1
2018-Jul-04 05:30N 40°15' W 072°11'4 8.5
2018-Jul-04 05:00N 40°14' W 072°16'5 8.2
2018-Jul-04 04:25N 40°14' W 072°22'44 7.9
2018-Jul-03 22:54N 40°09' W 073°19'4 8.1
2018-Jul-03 22:26N 40°09' W 073°24'4 8.3
2018-Jul-03 21:57N 40°09' W 073°30'4 8.0
2018-Jul-03 21:26N 40°08' W 073°35'4 8.3
2018-Jul-03 20:59N 40°07' W 073°40'4 8.4
2018-Jul-03 20:30N 40°07' W 073°45'6 8.4
2018-Jul-03 19:46N 40°06' W 073°53'  

Dump ship's entire track history